createdAt,value
2018-09-10T00:01:05.252Z,11.50
2018-09-10T00:03:36.066Z,14.20
2018-09-10T13:53:28.529Z,8.25
2018-09-10T13:55:59.300Z,7.77
2018-09-10T13:58:29.977Z,7.27
2018-09-10T14:01:00.748Z,7.50
2018-09-10T14:03:31.356Z,6.40
2018-09-10T14:06:03.285Z,6.17
2018-09-10T14:08:33.977Z,6.63
2018-09-10T14:11:06.507Z,6.40
2018-09-10T14:13:37.302Z,5.70
2018-09-10T14:16:09.061Z,7.03
2018-09-10T14:18:39.728Z,5.83
2018-09-10T14:21:11.218Z,6.40
2018-09-10T14:23:41.937Z,7.77
2018-09-10T14:26:13.374Z,9.37
2018-09-10T14:28:44.612Z,6.17
2018-09-10T14:31:16.543Z,6.17
2018-09-10T14:33:47.227Z,8.13
2018-09-10T14:36:18.061Z,7.63
2018-09-10T14:38:49.052Z,7.47
2018-09-10T14:41:19.733Z,6.90
2018-09-10T14:43:50.585Z,7.53
2018-09-10T14:46:21.321Z,7.80
2018-09-10T14:48:52.295Z,10.83
2018-09-10T14:51:23.030Z,7.83
2018-09-10T14:53:54.077Z,6.53
2018-09-10T14:56:24.767Z,9.63
2018-09-10T14:58:55.438Z,6.87
2018-09-10T15:01:26.204Z,7.53
2018-09-10T15:03:56.859Z,8.17
2018-09-10T15:07:52.859Z,8.13
2018-09-10T15:10:23.542Z,7.67
2018-09-10T15:12:54.296Z,7.30
2018-09-10T15:15:25.017Z,6.83
2018-09-10T15:17:55.814Z,8.03
2018-09-10T15:20:27.280Z,8.20
2018-09-10T15:22:58.005Z,7.33
2018-09-10T15:25:28.825Z,6.80
2018-09-10T15:27:59.516Z,7.07
2018-09-10T15:30:30.610Z,10.67
2018-09-10T15:33:01.341Z,6.87
2018-09-10T15:35:32.028Z,8.17
2018-09-10T15:38:03.141Z,8.23
2018-09-10T15:40:33.899Z,6.23
2018-09-10T15:43:05.769Z,6.80
2018-09-10T15:45:37.137Z,7.00
2018-09-10T15:48:07.855Z,7.33
2018-09-10T15:50:38.538Z,10.13
2018-09-10T15:53:09.228Z,8.93
2018-09-10T15:55:40.208Z,10.33
2018-09-10T15:58:10.979Z,6.60
2018-09-10T16:00:41.709Z,8.83
2018-09-10T16:03:12.447Z,6.70
2018-09-10T16:05:43.084Z,7.53
2018-09-10T16:08:13.933Z,7.90
2018-09-10T16:10:44.609Z,10.83
2018-09-10T16:13:15.344Z,13.60
2018-09-10T16:15:46.002Z,9.90
2018-09-10T16:18:17.013Z,8.03
2018-09-10T16:20:47.734Z,7.30
2018-09-10T16:23:18.396Z,8.13
2018-09-10T16:25:49.330Z,9.67
2018-09-10T16:28:20.231Z,15.63
2018-09-10T16:30:50.876Z,10.17
2018-09-10T16:33:21.703Z,7.93
2018-09-10T16:35:52.354Z,7.37
2018-09-10T16:38:23.837Z,8.53
2018-09-10T16:40:54.467Z,9.33
2018-09-10T16:43:25.496Z,7.90
2018-09-10T16:45:56.137Z,10.43
2018-09-10T16:48:27.474Z,8.47
2018-09-10T16:50:58.912Z,8.17
2018-09-10T16:53:30.639Z,8.10
2018-09-10T16:56:02.316Z,8.17
2018-09-10T16:58:33.006Z,7.33
2018-09-10T17:01:03.667Z,6.27
2018-09-10T17:03:34.473Z,5.60
2018-09-10T17:06:05.644Z,5.70
2018-09-10T17:08:36.558Z,8.90
2018-09-10T17:11:07.238Z,21.73
2018-09-10T17:13:37.967Z,24.57
2018-09-10T17:16:08.645Z,23.17
2018-09-10T17:18:39.916Z,20.67
2018-09-10T17:21:10.565Z,15.87
2018-09-10T17:23:41.245Z,21.10
2018-09-10T17:26:12.977Z,24.70
2018-09-10T17:28:45.727Z,21.30
2018-09-10T17:31:16.463Z,24.60
2018-09-10T17:33:47.335Z,18.20
2018-09-10T17:36:18.265Z,17.40
2018-09-10T17:38:49.057Z,16.23
2018-09-10T17:41:19.802Z,16.97
2018-09-10T17:43:50.914Z,14.13
2018-09-10T17:46:21.555Z,11.00
2018-09-10T17:48:52.770Z,10.30
2018-09-10T17:51:24.248Z,8.97
2018-09-10T17:53:55.107Z,10.40
2018-09-10T17:56:25.810Z,6.57
2018-09-10T17:58:56.552Z,7.53
2018-09-10T18:01:27.305Z,7.10
2018-09-10T18:03:58.986Z,6.90
2018-09-10T18:06:30.432Z,8.63
2018-09-10T18:09:01.139Z,8.20
2018-09-10T18:11:31.804Z,6.53
2018-09-10T18:14:02.502Z,6.33
2018-09-10T18:16:33.361Z,6.50
2018-09-10T18:19:04.088Z,6.50
2018-09-10T18:21:35.469Z,6.67
2018-09-10T18:24:06.304Z,6.20
2018-09-10T18:26:37.028Z,6.57
2018-09-10T18:29:07.711Z,6.13
2018-09-10T18:31:38.349Z,7.03
2018-09-10T18:34:09.420Z,7.00
2018-09-10T18:36:41.254Z,6.67
2018-09-10T18:39:13.337Z,6.50
2018-09-10T18:41:45.100Z,6.53
2018-09-10T18:44:15.794Z,6.70
2018-09-10T18:46:46.829Z,6.50
2018-09-10T18:49:17.579Z,7.13
2018-09-10T18:51:48.533Z,6.83
2018-09-10T18:54:19.228Z,6.63
2018-09-10T18:56:49.865Z,6.70
2018-09-10T18:59:20.680Z,6.60
2018-09-10T19:01:51.341Z,6.57
2018-09-10T19:04:22.129Z,6.30
2018-09-10T19:06:52.792Z,6.40
2018-09-10T19:09:23.486Z,6.20
2018-09-10T19:11:54.111Z,7.23
2018-09-10T19:14:25.061Z,7.87
2018-09-10T19:16:55.779Z,5.70
2018-09-10T19:19:27.355Z,8.93
2018-09-10T19:21:58.613Z,8.33
2018-09-10T19:24:29.284Z,12.07
2018-09-10T19:27:00.027Z,10.97
2018-09-10T19:29:31.341Z,8.97
2018-09-10T19:32:02.001Z,7.37
2018-09-10T19:34:33.017Z,5.90
2018-09-10T19:37:03.717Z,6.70
2018-09-10T19:39:34.474Z,7.17
2018-09-10T19:42:05.153Z,7.60
2018-09-10T19:44:36.570Z,8.13
2018-09-10T19:47:08.268Z,7.27
2018-09-10T19:49:39.374Z,7.27
2018-09-10T19:52:10.022Z,7.23
2018-09-10T19:54:41.805Z,6.77
2018-09-10T19:57:12.461Z,6.50
2018-09-10T19:59:43.191Z,6.43
2018-09-10T20:02:13.855Z,6.90
2018-09-10T20:04:44.603Z,7.17
2018-09-10T20:07:16.511Z,7.93
2018-09-10T20:09:47.302Z,7.20
2018-09-10T20:12:22.578Z,8.40
2018-09-10T20:14:53.287Z,9.10
2018-09-10T20:17:23.961Z,8.67
2018-09-10T20:20:07.270Z,8.50
2018-09-10T20:22:38.151Z,8.97
2018-09-10T20:25:08.885Z,8.20
2018-09-10T20:27:39.773Z,8.23
2018-09-10T20:30:10.582Z,8.67
2018-09-10T20:32:41.747Z,9.33
2018-09-10T20:35:12.753Z,9.23
2018-09-10T20:37:43.548Z,9.03
2018-09-10T20:40:14.246Z,9.63
2018-09-10T20:42:44.959Z,9.60
2018-09-10T20:45:15.666Z,9.50
2018-09-10T20:47:46.309Z,9.77
2018-09-10T20:50:17.324Z,9.60
2018-09-10T20:52:47.995Z,8.57
2018-09-10T20:55:18.761Z,9.03
2018-09-10T20:57:49.595Z,7.97
2018-09-10T21:00:20.262Z,7.90
2018-09-10T21:02:51.129Z,7.43
2018-09-10T21:05:24.716Z,7.77
2018-09-10T21:07:55.397Z,7.67
2018-09-10T21:10:26.672Z,7.90
2018-09-10T21:12:58.234Z,7.70
2018-09-10T21:15:29.537Z,7.90
2018-09-10T21:18:00.202Z,8.27
2018-09-10T21:20:32.283Z,7.53
2018-09-10T21:23:03.424Z,7.93
2018-09-10T21:25:34.163Z,8.03
2018-09-10T21:28:08.045Z,6.97
2018-09-10T21:30:38.708Z,7.03
2018-09-10T21:33:09.355Z,8.03
2018-09-10T21:35:40.531Z,8.03
2018-09-10T21:38:11.788Z,7.90
2018-09-10T21:40:42.428Z,8.33
2018-09-10T21:43:13.137Z,7.47
2018-09-10T21:45:43.800Z,7.10
2018-09-10T21:48:14.497Z,7.60
2018-09-10T21:50:48.639Z,6.93
2018-09-10T21:53:19.269Z,7.90
2018-09-10T21:55:49.931Z,7.27
2018-09-10T21:58:20.741Z,7.70
2018-09-10T22:00:55.917Z,7.43
2018-09-10T22:03:27.078Z,7.70
2018-09-10T22:05:57.836Z,9.00
2018-09-10T22:08:28.502Z,10.90
2018-09-10T22:10:59.239Z,11.07
2018-09-10T22:13:30.082Z,11.10
2018-09-10T22:16:00.762Z,12.80
2018-09-10T22:18:31.421Z,15.37
2018-09-10T22:21:02.378Z,15.07
2018-09-10T22:23:33.625Z,13.27
2018-09-10T22:26:04.297Z,11.53
2018-09-10T22:28:35.010Z,10.47
2018-09-10T22:31:06.808Z,8.60
2018-09-10T22:33:37.834Z,10.83
2018-09-10T22:36:09.368Z,11.83
2018-09-10T22:38:39.989Z,15.10
2018-09-10T22:41:10.658Z,15.17
2018-09-10T22:43:41.332Z,15.23
2018-09-10T22:46:12.050Z,15.20
2018-09-10T22:48:43.901Z,15.17
2018-09-10T22:51:14.635Z,14.33
2018-09-10T22:53:45.290Z,13.63
2018-09-10T22:56:15.974Z,18.87
2018-09-10T22:58:46.739Z,15.80
2018-09-10T23:01:17.416Z,16.20
2018-09-10T23:03:48.111Z,17.80
2018-09-10T23:06:18.801Z,17.23
2018-09-10T23:08:49.691Z,15.27
2018-09-10T23:11:21.124Z,15.03
2018-09-10T23:13:52.209Z,14.43
2018-09-10T23:16:23.011Z,13.43
2018-09-10T23:18:53.843Z,12.17
2018-09-10T23:21:25.701Z,12.87
2018-09-10T23:23:56.376Z,12.07
2018-09-10T23:26:27.053Z,13.07
2018-09-10T23:28:57.779Z,12.33
2018-09-10T23:31:28.456Z,12.87
2018-09-10T23:33:59.074Z,13.20
2018-09-10T23:36:29.804Z,12.87
2018-09-10T23:39:00.457Z,12.37
2018-09-10T23:41:31.729Z,12.67
2018-09-10T23:44:02.369Z,13.50
2018-09-10T23:46:33.057Z,15.00
2018-09-10T23:49:03.760Z,17.93
2018-09-10T23:51:34.794Z,18.00
2018-09-10T23:54:05.466Z,18.90
2018-09-10T23:56:36.151Z,15.93
2018-09-10T23:59:07.255Z,13.23
